createdAt,value
2023-06-09T00:00:36.163Z,43.01
2023-06-09T00:02:37.902Z,43.62
2023-06-09T00:04:39.583Z,43.91
2023-06-09T00:06:41.462Z,43.67
2023-06-09T00:08:43.228Z,43.85
2023-06-09T00:10:44.899Z,44.33
2023-06-09T00:12:47.892Z,45.28
2023-06-09T00:14:49.541Z,45.00
2023-06-09T00:16:53.858Z,45.38
2023-06-09T00:18:56.021Z,45.27
2023-06-09T00:20:57.705Z,45.79
2023-06-09T00:22:59.346Z,46.37
2023-06-09T00:25:01.032Z,46.69
2023-06-09T00:27:02.791Z,46.73
2023-06-09T00:29:05.860Z,46.55
2023-06-09T00:31:09.641Z,46.65
2023-06-09T00:33:11.306Z,46.49
2023-06-09T00:35:13.056Z,47.13
2023-06-09T00:37:14.677Z,46.50
2023-06-09T00:39:16.336Z,46.40
2023-06-09T00:41:18.416Z,46.68
2023-06-09T00:43:27.428Z,46.79
2023-06-09T00:45:30.514Z,46.71
2023-06-09T00:47:32.669Z,47.42
2023-06-09T00:49:34.886Z,48.39
2023-06-09T00:51:41.200Z,49.36
2023-06-09T00:53:43.063Z,49.67
2023-06-09T00:55:44.747Z,49.54
2023-06-09T00:57:48.646Z,49.23
2023-06-09T00:59:50.270Z,50.03
2023-06-09T01:01:53.860Z,49.83
2023-06-09T01:03:55.997Z,49.84
2023-06-09T01:06:08.537Z,49.55
2023-06-09T01:08:20.001Z,49.70
2023-06-09T01:10:30.439Z,49.73
2023-06-09T01:12:50.645Z,49.51
2023-06-09T01:14:57.311Z,49.00
2023-06-09T01:17:08.176Z,49.43
2023-06-09T01:19:20.403Z,49.84
2023-06-09T01:21:27.491Z,49.52
2023-06-09T01:23:38.458Z,49.79
2023-06-09T01:25:44.695Z,49.86
2023-06-09T01:27:57.114Z,50.09
2023-06-09T01:29:59.670Z,49.42
2023-06-09T01:32:03.673Z,50.47
2023-06-09T01:34:07.958Z,50.14
2023-06-09T01:36:10.767Z,50.49
2023-06-09T01:38:13.088Z,50.91
2023-06-09T01:40:15.128Z,51.31
2023-06-09T01:42:18.343Z,51.14
2023-06-09T01:44:20.129Z,51.17
2023-06-09T01:46:22.123Z,51.07
2023-06-09T01:48:32.476Z,51.07
2023-06-09T01:50:42.031Z,51.00
2023-06-09T01:52:50.238Z,51.18
2023-06-09T01:54:56.625Z,50.94
2023-06-09T01:57:09.020Z,50.23
2023-06-09T01:59:16.767Z,50.88
2023-06-09T02:01:20.863Z,50.84
2023-06-09T02:03:29.304Z,51.06
2023-06-09T02:05:31.837Z,50.81
2023-06-09T02:07:35.240Z,51.49
2023-06-09T02:09:37.094Z,51.47
2023-06-09T02:11:38.817Z,51.70
2023-06-09T02:13:40.566Z,51.47
2023-06-09T02:15:45.440Z,51.85
2023-06-09T02:17:47.481Z,52.04
2023-06-09T02:19:49.253Z,52.47
2023-06-09T02:21:50.854Z,52.28
2023-06-09T02:25:54.212Z,52.07
2023-06-09T02:27:55.841Z,52.10
2023-06-09T02:29:57.837Z,51.95
2023-06-09T02:32:01.439Z,52.33
2023-06-09T02:34:03.290Z,52.51
2023-06-09T02:36:07.681Z,52.52
2023-06-09T02:38:09.439Z,52.23
2023-06-09T02:40:11.833Z,52.15
2023-06-09T02:42:13.494Z,52.41
2023-06-09T02:44:26.443Z,52.31
2023-06-09T02:46:28.098Z,52.50
2023-06-09T02:48:34.696Z,52.64
2023-06-09T02:50:36.371Z,52.73
2023-06-09T02:52:38.112Z,52.94
2023-06-09T02:54:39.843Z,52.88
2023-06-09T02:56:41.530Z,52.50
2023-06-09T02:58:43.170Z,52.27
2023-06-09T03:00:44.898Z,52.75
2023-06-09T03:02:46.684Z,52.39
2023-06-09T03:04:50.152Z,52.31
2023-06-09T03:06:51.822Z,52.19
2023-06-09T03:08:53.446Z,52.44
2023-06-09T03:10:55.167Z,52.63
2023-06-09T03:12:56.839Z,52.19
2023-06-09T03:14:58.630Z,52.27
2023-06-09T03:17:02.665Z,51.20
2023-06-09T03:19:04.372Z,51.75
2023-06-09T03:21:07.369Z,51.49
2023-06-09T03:23:09.257Z,51.71
2023-06-09T03:25:10.873Z,52.00
2023-06-09T03:27:12.756Z,51.67
2023-06-09T03:29:14.460Z,51.33
2023-06-09T03:31:16.164Z,51.54
2023-06-09T03:33:17.992Z,51.67
2023-06-09T03:35:19.686Z,51.97
2023-06-09T03:37:25.669Z,52.09
2023-06-09T03:39:27.464Z,52.40
2023-06-09T03:41:29.340Z,52.51
2023-06-09T03:43:31.074Z,51.99
2023-06-09T03:45:32.746Z,52.76
2023-06-09T03:47:34.499Z,52.58
2023-06-09T03:49:36.293Z,52.80
2023-06-09T03:51:40.738Z,52.93
2023-06-09T03:53:43.768Z,52.88
2023-06-09T03:55:45.656Z,53.10
2023-06-09T03:57:47.296Z,53.70
2023-06-09T03:59:49.067Z,53.55
2023-06-09T04:01:50.953Z,54.21
2023-06-09T04:03:52.822Z,53.81
2023-06-09T04:05:54.673Z,53.62
2023-06-09T04:07:56.400Z,54.11
2023-06-09T04:09:59.609Z,53.90
2023-06-09T04:12:01.495Z,53.98
2023-06-09T04:14:03.217Z,54.12
2023-06-09T04:16:07.407Z,53.84
2023-06-09T04:18:09.876Z,54.26
2023-06-09T04:20:12.094Z,53.84
2023-06-09T04:22:13.768Z,53.95
2023-06-09T04:24:15.560Z,54.69
2023-06-09T04:26:18.638Z,54.69
2023-06-09T04:28:20.361Z,54.88
2023-06-09T04:30:22.592Z,55.34
2023-06-09T04:32:24.496Z,54.65
2023-06-09T04:34:29.312Z,55.20
2023-06-09T04:36:30.978Z,55.45
2023-06-09T04:38:33.394Z,54.85
2023-06-09T04:40:35.113Z,55.17
2023-06-09T04:42:40.943Z,55.09
2023-06-09T04:44:44.778Z,55.41
2023-06-09T04:46:49.442Z,55.85
2023-06-09T04:48:51.173Z,55.54
2023-06-09T04:50:58.518Z,55.14
2023-06-09T04:53:02.795Z,54.90
2023-06-09T04:55:05.211Z,55.16
2023-06-09T04:57:09.452Z,55.43
2023-06-09T04:59:12.673Z,55.54
2023-06-09T05:01:14.440Z,55.40
2023-06-09T05:03:16.414Z,55.51
2023-06-09T05:05:18.299Z,55.72
2023-06-09T05:07:19.950Z,55.30
2023-06-09T05:09:24.367Z,56.36
2023-06-09T05:11:26.216Z,55.43
2023-06-09T05:13:27.839Z,55.17
2023-06-09T05:15:30.951Z,55.98
2023-06-09T05:17:33.317Z,55.73
2023-06-09T05:19:37.901Z,55.88
2023-06-09T05:21:39.554Z,56.44
2023-06-09T05:23:44.212Z,56.27
2023-06-09T05:25:47.719Z,56.37
2023-06-09T05:27:49.505Z,56.17
2023-06-09T05:31:57.122Z,56.50
2023-06-09T05:33:58.812Z,55.59
2023-06-09T05:36:00.492Z,55.24
2023-06-09T05:38:02.114Z,54.64
2023-06-09T05:40:08.646Z,54.34
2023-06-09T05:42:11.743Z,54.51
2023-06-09T05:44:17.845Z,55.40
2023-06-09T05:46:19.523Z,55.57
2023-06-09T05:48:24.765Z,55.02
2023-06-09T05:50:26.458Z,55.05
2023-06-09T05:52:30.831Z,54.77
2023-06-09T05:54:32.884Z,54.10
2023-06-09T05:56:34.532Z,53.75
2023-06-09T05:58:38.866Z,53.97
2023-06-09T06:00:40.537Z,53.20
2023-06-09T06:02:42.474Z,53.39
2023-06-09T06:04:45.868Z,54.05
2023-06-09T06:06:47.689Z,53.87
2023-06-09T06:08:49.387Z,53.53
2023-06-09T06:10:51.907Z,53.25
2023-06-09T06:12:53.689Z,52.71
2023-06-09T06:14:55.331Z,51.89
2023-06-09T06:16:56.915Z,51.43
2023-06-09T06:18:58.610Z,51.00
2023-06-09T06:21:01.950Z,51.45
2023-06-09T06:23:06.239Z,51.68
2023-06-09T06:25:14.276Z,51.65
2023-06-09T06:27:19.421Z,50.71
2023-06-09T06:29:21.212Z,50.97
2023-06-09T06:31:23.249Z,51.03
2023-06-09T06:33:27.081Z,50.91
2023-06-09T06:35:30.002Z,51.00
2023-06-09T06:37:33.060Z,50.52
2023-06-09T06:39:34.894Z,51.38
2023-06-09T06:41:36.656Z,50.59
2023-06-09T06:43:38.377Z,50.81
2023-06-09T06:45:40.043Z,50.47
2023-06-09T06:47:41.935Z,50.06
2023-06-09T06:49:43.778Z,49.70
2023-06-09T06:51:45.545Z,50.60
2023-06-09T06:53:48.757Z,51.09
2023-06-09T06:55:50.824Z,50.37
2023-06-09T06:57:59.813Z,49.77
2023-06-09T07:00:04.168Z,49.18
2023-06-09T07:02:09.332Z,49.40
2023-06-09T07:04:13.490Z,48.98
2023-06-09T07:06:15.285Z,51.05
2023-06-09T07:08:17.068Z,50.47
2023-06-09T07:10:25.048Z,49.38
2023-06-09T07:12:26.867Z,49.06
2023-06-09T07:14:29.651Z,50.76
2023-06-09T07:16:31.259Z,48.70
2023-06-09T07:18:33.102Z,49.02
2023-06-09T07:20:34.883Z,47.29
2023-06-09T07:22:40.143Z,46.50
2023-06-09T07:24:41.806Z,46.58
2023-06-09T07:26:44.956Z,45.20
2023-06-09T07:28:46.960Z,45.74
2023-06-09T07:30:48.731Z,46.24
2023-06-09T07:32:54.866Z,45.56
2023-06-09T07:34:56.660Z,46.50
2023-06-09T07:36:58.411Z,45.97
2023-06-09T07:39:00.125Z,45.40
2023-06-09T07:41:01.849Z,45.38
2023-06-09T07:43:05.114Z,44.78
2023-06-09T07:45:08.859Z,45.45
2023-06-09T07:47:10.554Z,44.80
2023-06-09T07:49:12.449Z,46.35
2023-06-09T07:51:14.779Z,45.39
2023-06-09T07:53:16.613Z,45.50
2023-06-09T07:55:27.489Z,44.90
2023-06-09T07:57:29.388Z,44.48
2023-06-09T07:59:33.280Z,46.30
2023-06-09T08:01:35.536Z,46.86
2023-06-09T08:03:42.322Z,45.87
2023-06-09T08:05:45.333Z,45.58
2023-06-09T08:07:48.479Z,44.41
2023-06-09T08:09:50.800Z,44.41
2023-06-09T08:11:54.188Z,46.00
2023-06-09T08:13:56.000Z,45.15
2023-06-09T08:15:59.639Z,43.87
2023-06-09T08:18:06.723Z,44.14
2023-06-09T08:20:09.222Z,46.66
2023-06-09T08:22:11.157Z,44.64
2023-06-09T08:24:14.142Z,44.98
2023-06-09T08:26:16.062Z,42.79
2023-06-09T08:28:19.389Z,44.84
2023-06-09T08:30:24.267Z,42.58
2023-06-09T08:32:27.594Z,42.83
2023-06-09T08:34:35.955Z,46.53
2023-06-09T08:36:37.729Z,45.57
2023-06-09T08:38:48.859Z,45.75
2023-06-09T08:40:52.542Z,44.03
2023-06-09T08:42:56.594Z,42.62
2023-06-09T08:45:02.655Z,43.05
2023-06-09T08:47:07.424Z,44.17
2023-06-09T08:49:11.909Z,44.21
2023-06-09T08:51:13.973Z,42.87
2023-06-09T08:53:17.391Z,44.45
2023-06-09T08:55:19.528Z,41.48
2023-06-09T08:57:21.725Z,41.64
2023-06-09T08:59:24.300Z,41.54
2023-06-09T09:01:29.204Z,41.89
2023-06-09T09:03:31.023Z,39.35
2023-06-09T09:05:34.743Z,37.81
2023-06-09T09:07:36.751Z,40.68
2023-06-09T09:09:38.403Z,41.82
2023-06-09T09:11:40.105Z,39.59
2023-06-09T09:13:41.791Z,39.39
2023-06-09T09:15:50.342Z,40.18
2023-06-09T09:17:52.114Z,40.26
2023-06-09T09:19:55.212Z,39.26
2023-06-09T09:22:02.677Z,40.53
2023-06-09T09:24:05.582Z,37.19
2023-06-09T09:26:10.483Z,36.46
2023-06-09T09:28:13.121Z,36.28
2023-06-09T09:30:15.106Z,35.76
2023-06-09T09:32:16.892Z,36.78
2023-06-09T09:34:20.541Z,36.36
2023-06-09T09:36:22.374Z,37.26
2023-06-09T09:38:26.927Z,35.85
2023-06-09T09:40:28.536Z,36.87
2023-06-09T09:42:32.131Z,41.93
2023-06-09T09:44:40.748Z,37.50
2023-06-09T09:46:44.150Z,38.23
2023-06-09T09:48:45.857Z,36.94
2023-06-09T09:50:48.675Z,34.82
2023-06-09T09:52:51.757Z,40.23
2023-06-09T09:54:56.100Z,35.26
2023-06-09T09:56:59.882Z,35.23
2023-06-09T09:59:01.613Z,40.09
2023-06-09T10:01:05.479Z,37.73
2023-06-09T10:03:09.841Z,36.85
2023-06-09T10:05:11.788Z,38.67
2023-06-09T10:07:15.748Z,35.49
2023-06-09T10:09:17.633Z,34.61
2023-06-09T10:11:22.074Z,32.73
2023-06-09T10:13:26.406Z,33.82
2023-06-09T10:15:28.117Z,33.50
2023-06-09T10:17:30.532Z,33.53
2023-06-09T10:19:32.376Z,34.05
2023-06-09T10:21:34.617Z,33.24
2023-06-09T10:23:36.572Z,34.81
2023-06-09T10:25:38.503Z,33.29
2023-06-09T10:27:42.078Z,33.14
2023-06-09T10:29:43.971Z,31.57
2023-06-09T10:31:48.137Z,32.51
2023-06-09T10:33:51.232Z,32.28
2023-06-09T10:35:58.352Z,31.53
2023-06-09T10:38:20.707Z,31.90
2023-06-09T10:40:30.080Z,31.89
2023-06-09T10:42:40.697Z,31.90
2023-06-09T10:44:54.243Z,30.71
2023-06-09T10:46:56.813Z,34.15
2023-06-09T10:48:59.723Z,31.31
2023-06-09T10:51:35.267Z,30.39
2023-06-09T10:53:37.034Z,31.83
2023-06-09T10:55:38.737Z,37.51
2023-06-09T10:57:40.584Z,32.13
2023-06-09T10:59:58.509Z,30.50
2023-06-09T11:02:21.787Z,30.98
2023-06-09T11:04:48.759Z,31.25
2023-06-09T11:07:11.848Z,30.56
2023-06-09T11:09:13.683Z,30.86
2023-06-09T11:11:16.129Z,30.93
2023-06-09T11:13:39.256Z,31.18
2023-06-09T11:16:01.517Z,31.87
2023-06-09T11:18:17.279Z,31.32
2023-06-09T11:20:20.716Z,34.50
2023-06-09T11:22:22.468Z,31.57
2023-06-09T11:24:24.315Z,30.65
2023-06-09T11:26:26.390Z,31.70
2023-06-09T11:28:28.270Z,31.13
2023-06-09T11:30:31.252Z,31.57
2023-06-09T11:32:47.730Z,31.57
2023-06-09T11:34:50.738Z,30.84
2023-06-09T11:36:52.776Z,31.90
2023-06-09T11:39:00.318Z,30.57
2023-06-09T11:41:02.609Z,30.55
2023-06-09T11:43:08.701Z,32.65
2023-06-09T11:45:11.098Z,30.85
2023-06-09T11:47:29.554Z,31.89
2023-06-09T11:49:34.334Z,30.75
2023-06-09T11:52:01.240Z,30.31
2023-06-09T11:54:02.953Z,31.47
2023-06-09T11:56:04.929Z,32.16
2023-06-09T11:58:08.038Z,31.50
2023-06-09T12:00:11.802Z,30.34
2023-06-09T12:02:13.988Z,30.79
2023-06-09T12:04:15.887Z,29.92
2023-06-09T12:06:19.196Z,29.34
2023-06-09T12:08:21.146Z,28.32
2023-06-09T12:10:24.711Z,28.88
2023-06-09T12:12:26.447Z,29.23
2023-06-09T12:14:28.341Z,29.35
2023-06-09T12:16:30.104Z,30.61
2023-06-09T12:18:31.932Z,29.12
2023-06-09T12:20:35.059Z,28.47
2023-06-09T12:22:43.022Z,28.04
2023-06-09T12:24:45.243Z,29.20
2023-06-09T12:26:47.206Z,29.22
2023-06-09T12:28:54.049Z,28.61
2023-06-09T12:30:56.610Z,29.65
2023-06-09T12:32:58.563Z,28.12
2023-06-09T12:35:01.544Z,28.96
2023-06-09T12:37:05.884Z,27.60
2023-06-09T12:39:19.181Z,27.62
2023-06-09T12:41:21.158Z,27.94
2023-06-09T12:43:24.382Z,27.28
2023-06-09T12:45:27.453Z,26.18
2023-06-09T12:47:30.427Z,26.75
2023-06-09T12:49:35.346Z,26.96
2023-06-09T12:51:43.417Z,26.47
2023-06-09T12:53:45.612Z,25.85
2023-06-09T12:55:48.973Z,25.97
2023-06-09T12:57:50.783Z,27.08
2023-06-09T12:59:52.501Z,25.02
2023-06-09T13:01:54.343Z,24.50
2023-06-09T13:03:56.192Z,23.94
2023-06-09T13:05:57.914Z,23.50
2023-06-09T13:08:00.077Z,23.27
2023-06-09T13:10:01.957Z,22.89
2023-06-09T13:12:05.641Z,22.17
2023-06-09T13:14:07.287Z,22.16
2023-06-09T13:16:09.430Z,22.35
2023-06-09T13:18:11.252Z,25.44
2023-06-09T13:20:14.962Z,21.63
2023-06-09T13:22:16.602Z,22.34
2023-06-09T13:24:18.401Z,21.57
2023-06-09T13:26:20.230Z,22.16
2023-06-09T13:28:26.035Z,21.40
2023-06-09T13:30:29.698Z,22.83
2023-06-09T13:32:31.378Z,22.17
2023-06-09T13:34:33.145Z,20.54
2023-06-09T13:36:34.946Z,20.77
2023-06-09T13:38:36.719Z,22.67
2023-06-09T13:40:38.401Z,21.83
2023-06-09T13:42:40.140Z,20.41
2023-06-09T13:44:43.207Z,21.60
2023-06-09T13:46:45.076Z,22.16
2023-06-09T13:48:47.144Z,22.47
2023-06-09T13:50:49.085Z,21.53
2023-06-09T13:52:51.208Z,21.76
2023-06-09T13:54:56.062Z,23.19
2023-06-09T13:56:57.712Z,21.56
2023-06-09T13:58:59.533Z,25.25
2023-06-09T14:01:09.302Z,22.16
2023-06-09T14:03:11.240Z,22.58
2023-06-09T14:05:13.875Z,22.23
2023-06-09T14:07:15.906Z,21.87
2023-06-09T14:09:17.569Z,22.21
2023-06-09T14:11:22.927Z,22.14
2023-06-09T14:13:25.344Z,21.64
2023-06-09T14:15:29.850Z,21.69
2023-06-09T14:17:33.980Z,21.75
2023-06-09T14:19:35.832Z,23.10
2023-06-09T14:21:37.564Z,22.22
2023-06-09T14:23:39.379Z,21.93
2023-06-09T14:25:41.206Z,22.72
2023-06-09T14:27:42.868Z,22.41
2023-06-09T14:29:44.568Z,23.25
2023-06-09T14:31:46.592Z,23.03
2023-06-09T14:33:52.096Z,23.31
2023-06-09T14:35:53.864Z,23.05
2023-06-09T14:37:57.672Z,23.69
2023-06-09T14:39:59.411Z,23.93
2023-06-09T14:42:01.624Z,23.87
2023-06-09T14:44:03.561Z,24.57
2023-06-09T14:46:05.542Z,24.39
2023-06-09T14:48:10.174Z,27.15
2023-06-09T14:50:13.808Z,29.40
2023-06-09T14:52:15.620Z,27.47
2023-06-09T14:54:17.637Z,30.64
2023-06-09T14:56:19.284Z,31.66
2023-06-09T14:58:21.316Z,29.55
2023-06-09T15:00:25.189Z,33.08
2023-06-09T15:02:26.885Z,27.98
2023-06-09T15:04:28.532Z,32.84
2023-06-09T15:06:31.694Z,32.71
2023-06-09T15:08:33.574Z,28.18
2023-06-09T15:10:39.224Z,29.38
2023-06-09T15:12:42.558Z,24.66
2023-06-09T15:14:44.409Z,24.03
2023-06-09T15:16:46.139Z,24.19
2023-06-09T15:18:47.808Z,23.09
2023-06-09T15:20:49.683Z,24.08
2023-06-09T15:22:56.751Z,24.09
2023-06-09T15:24:58.607Z,24.50
2023-06-09T15:27:00.334Z,24.53
2023-06-09T15:29:02.025Z,27.15
2023-06-09T15:31:03.872Z,24.48
2023-06-09T15:33:07.705Z,24.90
2023-06-09T15:35:09.897Z,24.85
2023-06-09T15:37:11.883Z,24.76
2023-06-09T15:39:15.260Z,25.58
2023-06-09T15:41:17.719Z,25.30
2023-06-09T15:43:21.620Z,25.68
2023-06-09T15:45:23.438Z,26.97
2023-06-09T15:47:25.386Z,24.54
2023-06-09T15:49:27.107Z,24.74
2023-06-09T15:51:30.508Z,24.46
2023-06-09T15:53:32.422Z,24.21
2023-06-09T15:55:36.074Z,24.16
2023-06-09T15:57:38.463Z,24.15
2023-06-09T15:59:40.100Z,25.40
2023-06-09T16:01:41.869Z,23.84
2023-06-09T16:03:43.889Z,23.66
2023-06-09T16:05:45.739Z,26.52
2023-06-09T16:07:47.416Z,24.96
2023-06-09T16:09:49.372Z,22.52
2023-06-09T16:11:57.336Z,22.17
2023-06-09T16:13:58.987Z,23.05
2023-06-09T16:16:00.680Z,25.12
2023-06-09T16:18:02.641Z,23.60
2023-06-09T16:20:05.444Z,23.99
2023-06-09T16:22:07.296Z,23.27
2023-06-09T16:24:12.081Z,22.96
2023-06-09T16:26:13.751Z,23.51
2023-06-09T16:28:17.086Z,23.39
2023-06-09T16:30:18.888Z,23.43
2023-06-09T16:32:20.591Z,23.19
2023-06-09T16:34:22.209Z,23.77
2023-06-09T16:36:24.028Z,23.80
2023-06-09T16:38:25.817Z,23.83
2023-06-09T16:40:27.694Z,24.12
2023-06-09T16:42:30.041Z,24.06
2023-06-09T16:44:33.086Z,23.95
2023-06-09T16:46:34.904Z,23.84
2023-06-09T16:48:38.684Z,24.78
2023-06-09T16:50:41.338Z,23.89
2023-06-09T16:52:42.965Z,23.82
2023-06-09T16:54:44.830Z,24.26
2023-06-09T16:56:46.571Z,24.13
2023-06-09T16:58:48.222Z,24.17
2023-06-09T17:00:51.522Z,23.78
2023-06-09T17:02:55.883Z,24.04
2023-06-09T17:04:58.376Z,23.54
2023-06-09T17:07:01.238Z,24.54
2023-06-09T17:09:04.420Z,25.35
2023-06-09T17:11:06.292Z,24.29
2023-06-09T17:13:10.227Z,24.32
2023-06-09T17:15:11.976Z,25.31
2023-06-09T17:17:15.278Z,24.37
2023-06-09T17:19:17.094Z,24.52
2023-06-09T17:21:18.802Z,24.78
2023-06-09T17:23:20.479Z,25.29
2023-06-09T17:25:22.167Z,25.02
2023-06-09T17:27:24.017Z,24.21
2023-06-09T17:29:26.194Z,24.01
2023-06-09T17:31:27.812Z,24.08
2023-06-09T17:33:31.092Z,25.58
2023-06-09T17:35:32.832Z,24.87
2023-06-09T17:37:34.511Z,25.88
2023-06-09T17:39:36.209Z,25.46
2023-06-09T17:41:37.862Z,25.79
2023-06-09T17:43:39.567Z,27.24
2023-06-09T17:45:44.102Z,26.11
2023-06-09T17:47:45.819Z,26.40
2023-06-09T17:49:48.983Z,26.13
2023-06-09T17:51:50.706Z,26.38
2023-06-09T17:53:52.438Z,26.58
2023-06-09T17:55:54.120Z,26.60
2023-06-09T17:57:56.109Z,26.50
2023-06-09T17:59:57.900Z,26.81
2023-06-09T18:01:59.533Z,26.93
2023-06-09T18:04:02.072Z,30.79
2023-06-09T18:06:05.249Z,30.16
2023-06-09T18:08:07.002Z,27.91
2023-06-09T18:10:09.351Z,30.27
2023-06-09T18:12:11.612Z,27.87
2023-06-09T18:14:13.253Z,26.58
2023-06-09T18:16:17.655Z,28.15
2023-06-09T18:18:19.371Z,31.79
2023-06-09T18:20:21.276Z,32.33
2023-06-09T18:22:24.443Z,26.58
2023-06-09T18:24:26.130Z,29.28
2023-06-09T18:26:27.806Z,30.79
2023-06-09T18:28:29.795Z,31.65
2023-06-09T18:30:31.583Z,29.11
2023-06-09T18:32:33.589Z,29.79
2023-06-09T18:34:35.361Z,27.33
2023-06-09T18:36:37.016Z,28.46
2023-06-09T18:38:39.993Z,27.35
2023-06-09T18:40:41.809Z,27.40
2023-06-09T18:42:43.474Z,27.39
2023-06-09T18:44:45.278Z,28.48
2023-06-09T18:46:47.676Z,27.79
2023-06-09T18:49:00.444Z,28.08
2023-06-09T18:51:03.611Z,32.48
2023-06-09T18:53:08.342Z,27.78
2023-06-09T18:55:11.623Z,27.28
2023-06-09T18:57:13.520Z,28.16
2023-06-09T18:59:15.279Z,27.29
2023-06-09T19:01:18.377Z,27.53
2023-06-09T19:03:20.262Z,27.58
2023-06-09T19:05:22.305Z,27.40
2023-06-09T19:07:23.972Z,33.17
2023-06-09T19:09:25.716Z,37.49
2023-06-09T19:11:29.094Z,29.63
2023-06-09T19:13:30.806Z,29.18
2023-06-09T19:15:32.519Z,30.10
2023-06-09T19:17:34.301Z,28.94
2023-06-09T19:19:36.049Z,29.04
2023-06-09T19:21:37.994Z,29.47
2023-06-09T19:23:41.898Z,28.60
2023-06-09T19:25:43.660Z,29.37
2023-06-09T19:27:46.647Z,29.23
2023-06-09T19:29:48.309Z,29.69
2023-06-09T19:31:50.045Z,30.95
2023-06-09T19:33:51.672Z,29.61
2023-06-09T19:35:53.480Z,29.48
2023-06-09T19:37:59.958Z,28.86
2023-06-09T19:40:02.160Z,29.17
2023-06-09T19:42:04.467Z,29.72
2023-06-09T19:44:10.230Z,33.42
2023-06-09T19:46:12.000Z,30.30
2023-06-09T19:48:14.018Z,31.26
2023-06-09T19:50:15.832Z,30.00
2023-06-09T19:52:17.478Z,30.35
2023-06-09T19:54:19.205Z,31.38
2023-06-09T19:56:23.658Z,30.82
2023-06-09T19:58:25.502Z,31.06
2023-06-09T20:00:28.726Z,31.73
2023-06-09T20:02:30.735Z,33.00
2023-06-09T20:04:32.562Z,31.26
2023-06-09T20:06:34.543Z,31.53
2023-06-09T20:08:36.308Z,30.43
2023-06-09T20:10:40.784Z,30.79
2023-06-09T20:12:45.500Z,31.08
2023-06-09T20:14:47.160Z,32.63
2023-06-09T20:16:50.269Z,31.55
2023-06-09T20:18:52.007Z,31.98
2023-06-09T20:20:53.886Z,31.37
2023-06-09T20:22:55.593Z,32.11
2023-06-09T20:24:57.378Z,33.22
2023-06-09T20:26:59.071Z,32.08
2023-06-09T20:29:00.884Z,31.34
2023-06-09T20:31:03.156Z,31.67
2023-06-09T20:33:06.346Z,31.69
2023-06-09T20:35:11.633Z,31.07
2023-06-09T20:37:13.506Z,31.90
2023-06-09T20:39:15.390Z,31.80
2023-06-09T20:41:16.963Z,32.28
2023-06-09T20:43:18.712Z,31.73
2023-06-09T20:45:20.649Z,32.48
2023-06-09T20:47:22.306Z,32.06
2023-06-09T20:49:28.513Z,32.65
2023-06-09T20:51:30.370Z,31.60
2023-06-09T20:53:32.027Z,32.04
2023-06-09T20:55:39.431Z,32.26
2023-06-09T20:57:42.527Z,31.80
2023-06-09T20:59:44.194Z,32.09
2023-06-09T21:01:46.025Z,31.80
2023-06-09T21:03:47.886Z,32.22
2023-06-09T21:05:51.095Z,31.77
2023-06-09T21:07:56.197Z,31.60
2023-06-09T21:09:57.905Z,32.06
2023-06-09T21:11:59.520Z,32.77
2023-06-09T21:14:01.432Z,32.72
2023-06-09T21:16:03.336Z,32.35
2023-06-09T21:18:05.672Z,32.36
2023-06-09T21:20:12.097Z,32.08
2023-06-09T21:22:15.568Z,32.34
2023-06-09T21:24:17.501Z,32.82
2023-06-09T21:26:19.369Z,32.68
2023-06-09T21:28:21.028Z,32.95
2023-06-09T21:30:25.090Z,32.74
2023-06-09T21:32:26.848Z,32.74
2023-06-09T21:34:28.504Z,32.73
2023-06-09T21:36:30.117Z,32.85
2023-06-09T21:38:33.408Z,33.35
2023-06-09T21:40:35.197Z,34.42
2023-06-09T21:42:36.961Z,34.19
2023-06-09T21:44:38.830Z,33.19
2023-06-09T21:46:40.510Z,33.46
2023-06-09T21:48:45.177Z,34.15
2023-06-09T21:50:47.199Z,33.58
2023-06-09T21:52:48.886Z,33.18
2023-06-09T21:54:52.017Z,33.27
2023-06-09T21:56:59.324Z,33.30
2023-06-09T21:59:00.996Z,33.46
2023-06-09T22:01:07.950Z,33.71
2023-06-09T22:03:11.184Z,33.70
2023-06-09T22:05:13.678Z,33.95
2023-06-09T22:07:15.329Z,33.69
2023-06-09T22:09:17.098Z,34.17
2023-06-09T22:11:20.074Z,33.95
2023-06-09T22:13:21.966Z,33.55
2023-06-09T22:15:26.504Z,34.01
2023-06-09T22:17:28.193Z,34.63
2023-06-09T22:19:29.879Z,34.68
2023-06-09T22:21:31.599Z,34.17
2023-06-09T22:23:33.282Z,35.10
2023-06-09T22:25:34.930Z,35.56
2023-06-09T22:27:38.023Z,35.94
2023-06-09T22:29:39.688Z,35.81
2023-06-09T22:31:41.409Z,35.99
2023-06-09T22:33:43.597Z,35.57
2023-06-09T22:35:47.541Z,36.07
2023-06-09T22:37:51.783Z,35.96
2023-06-09T22:39:53.455Z,37.00
2023-06-09T22:41:55.142Z,36.89
2023-06-09T22:43:58.441Z,36.91
2023-06-09T22:46:00.156Z,37.13
2023-06-09T22:48:02.051Z,37.04
2023-06-09T22:50:06.091Z,36.68
2023-06-09T22:52:08.293Z,36.62
2023-06-09T22:54:10.030Z,36.44
2023-06-09T22:56:13.192Z,37.31
2023-06-09T22:58:15.001Z,37.39
2023-06-09T23:00:19.001Z,37.42
2023-06-09T23:02:22.369Z,37.40
2023-06-09T23:04:24.193Z,36.93
2023-06-09T23:06:26.283Z,37.20
2023-06-09T23:08:28.026Z,37.87
2023-06-09T23:10:30.277Z,37.05
2023-06-09T23:12:32.719Z,37.38
2023-06-09T23:14:34.358Z,37.72
2023-06-09T23:16:37.603Z,37.71
2023-06-09T23:18:39.245Z,38.25
2023-06-09T23:20:41.006Z,37.53
2023-06-09T23:22:42.779Z,38.01
2023-06-09T23:24:44.562Z,37.75
2023-06-09T23:26:46.282Z,37.80
2023-06-09T23:28:48.006Z,37.60
2023-06-09T23:30:49.631Z,37.61
2023-06-09T23:32:55.882Z,37.60
2023-06-09T23:34:57.641Z,38.10
2023-06-09T23:36:59.414Z,37.78
2023-06-09T23:39:01.157Z,38.05
2023-06-09T23:41:02.850Z,37.33
2023-06-09T23:43:04.511Z,36.71
2023-06-09T23:45:10.603Z,37.04
2023-06-09T23:47:12.402Z,36.02
2023-06-09T23:49:15.604Z,36.20
2023-06-09T23:51:17.354Z,36.05
2023-06-09T23:53:20.789Z,35.57
2023-06-09T23:55:22.689Z,36.36
2023-06-09T23:57:25.023Z,35.71
2023-06-09T23:59:27.055Z,36.08
